sensor_id;sensor_type;location;lat;lon;timestamp;temperature;humidity
9519;DHT22;4797;50.220;8.782;2023-12-07T00:01:22;2.50;99.80
9519;DHT22;4797;50.220;8.782;2023-12-07T00:03:50;2.40;99.80
9519;DHT22;4797;50.220;8.782;2023-12-07T00:06:18;2.20;99.80
9519;DHT22;4797;50.220;8.782;2023-12-07T00:08:46;2.10;99.80
9519;DHT22;4797;50.220;8.782;2023-12-07T00:11:14;2.00;99.80
9519;DHT22;4797;50.220;8.782;2023-12-07T00:13:42;1.90;99.80
9519;DHT22;4797;50.220;8.782;2023-12-07T00:16:10;1.80;99.80
9519;DHT22;4797;50.220;8.782;2023-12-07T00:18:39;1.80;99.80
9519;DHT22;4797;50.220;8.782;2023-12-07T00:21:08;1.90;99.80
9519;DHT22;4797;50.220;8.782;2023-12-07T00:23:36;2.00;99.80
9519;DHT22;4797;50.220;8.782;2023-12-07T00:26:04;2.10;99.80
9519;DHT22;4797;50.220;8.782;2023-12-07T00:28:32;2.10;99.80
9519;DHT22;4797;50.220;8.782;2023-12-07T00:31:00;2.20;99.80
9519;DHT22;4797;50.220;8.782;2023-12-07T00:33:28;2.30;99.80
9519;DHT22;4797;50.220;8.782;2023-12-07T00:35:58;2.30;99.80
9519;DHT22;4797;50.220;8.782;2023-12-07T00:38:26;2.40;99.80
9519;DHT22;4797;50.220;8.782;2023-12-07T00:40:53;2.50;99.80
9519;DHT22;4797;50.220;8.782;2023-12-07T00:43:21;2.70;99.80
9519;DHT22;4797;50.220;8.782;2023-12-07T00:45:49;2.80;99.80
9519;DHT22;4797;50.220;8.782;2023-12-07T00:48:17;2.90;99.80
9519;DHT22;4797;50.220;8.782;2023-12-07T00:50:46;2.90;99.80
9519;DHT22;4797;50.220;8.782;2023-12-07T00:53:16;2.80;99.80
9519;DHT22;4797;50.220;8.782;2023-12-07T00:55:44;2.90;99.80
9519;DHT22;4797;50.220;8.782;2023-12-07T00:58:12;2.80;99.80
9519;DHT22;4797;50.220;8.782;2023-12-07T01:00:40;2.80;99.80
9519;DHT22;4797;50.220;8.782;2023-12-07T01:03:08;2.80;99.80
9519;DHT22;4797;50.220;8.782;2023-12-07T01:05:37;2.70;99.80
9519;DHT22;4797;50.220;8.782;2023-12-07T01:08:05;2.70;99.80
9519;DHT22;4797;50.220;8.782;2023-12-07T01:10:34;2.60;99.80
9519;DHT22;4797;50.220;8.782;2023-12-07T01:13:02;2.60;99.80
9519;DHT22;4797;50.220;8.782;2023-12-07T01:15:30;2.50;99.80
9519;DHT22;4797;50.220;8.782;2023-12-07T01:17:59;2.60;99.80
9519;DHT22;4797;50.220;8.782;2023-12-07T01:20:27;2.60;99.80
9519;DHT22;4797;50.220;8.782;2023-12-07T01:22:54;2.60;99.80
9519;DHT22;4797;50.220;8.782;2023-12-07T01:25:22;2.50;99.80
9519;DHT22;4797;50.220;8.782;2023-12-07T01:27:52;2.50;99.80
9519;DHT22;4797;50.220;8.782;2023-12-07T01:30:20;2.50;99.80
9519;DHT22;4797;50.220;8.782;2023-12-07T01:32:48;2.40;99.80
9519;DHT22;4797;50.220;8.782;2023-12-07T01:35:16;2.40;99.80
9519;DHT22;4797;50.220;8.782;2023-12-07T01:37:44;2.30;99.80
9519;DHT22;4797;50.220;8.782;2023-12-07T01:40:12;2.30;99.80
9519;DHT22;4797;50.220;8.782;2023-12-07T01:42:49;2.30;99.80
9519;DHT22;4797;50.220;8.782;2023-12-07T01:45:18;2.30;99.80
9519;DHT22;4797;50.220;8.782;2023-12-07T01:47:47;2.30;99.80
9519;DHT22;4797;50.220;8.782;2023-12-07T01:50:17;2.30;99.80
9519;DHT22;4797;50.220;8.782;2023-12-07T01:52:54;2.30;99.80
9519;DHT22;4797;50.220;8.782;2023-12-07T01:55:23;2.30;99.80
9519;DHT22;4797;50.220;8.782;2023-12-07T01:57:51;2.30;99.80
9519;DHT22;4797;50.220;8.782;2023-12-07T02:00:20;2.30;99.80
9519;DHT22;4797;50.220;8.782;2023-12-07T02:02:50;2.30;99.80
9519;DHT22;4797;50.220;8.782;2023-12-07T02:05:18;2.30;99.80
9519;DHT22;4797;50.220;8.782;2023-12-07T02:07:46;2.30;99.80
9519;DHT22;4797;50.220;8.782;2023-12-07T02:10:14;2.20;99.80
9519;DHT22;4797;50.220;8.782;2023-12-07T02:12:43;2.20;99.80
9519;DHT22;4797;50.220;8.782;2023-12-07T02:15:13;2.10;99.80
9519;DHT22;4797;50.220;8.782;2023-12-07T02:17:49;2.10;99.80
9519;DHT22;4797;50.220;8.782;2023-12-07T02:20:26;2.00;99.80
9519;DHT22;4797;50.220;8.782;2023-12-07T02:23:00;2.00;99.80
9519;DHT22;4797;50.220;8.782;2023-12-07T02:25:32;1.90;99.80
9519;DHT22;4797;50.220;8.782;2023-12-07T02:28:04;1.80;99.80
9519;DHT22;4797;50.220;8.782;2023-12-07T02:30:32;1.70;99.80
9519;DHT22;4797;50.220;8.782;2023-12-07T02:33:00;1.70;99.80
9519;DHT22;4797;50.220;8.782;2023-12-07T02:35:29;1.60;99.80
9519;DHT22;4797;50.220;8.782;2023-12-07T02:37:58;1.60;99.80
9519;DHT22;4797;50.220;8.782;2023-12-07T02:40:27;1.50;99.80
9519;DHT22;4797;50.220;8.782;2023-12-07T02:42:56;1.40;99.80
9519;DHT22;4797;50.220;8.782;2023-12-07T02:45:26;1.30;99.80
9519;DHT22;4797;50.220;8.782;2023-12-07T02:47:54;1.30;99.80
9519;DHT22;4797;50.220;8.782;2023-12-07T02:50:22;1.20;99.80
9519;DHT22;4797;50.220;8.782;2023-12-07T02:52:50;1.10;99.80
9519;DHT22;4797;50.220;8.782;2023-12-07T02:55:18;1.10;99.80
9519;DHT22;4797;50.220;8.782;2023-12-07T02:57:46;1.00;99.80
9519;DHT22;4797;50.220;8.782;2023-12-07T03:00:15;1.00;99.80
9519;DHT22;4797;50.220;8.782;2023-12-07T03:02:44;0.90;99.80
9519;DHT22;4797;50.220;8.782;2023-12-07T03:05:14;0.90;99.80
9519;DHT22;4797;50.220;8.782;2023-12-07T03:07:42;0.90;99.80
9519;DHT22;4797;50.220;8.782;2023-12-07T03:10:10;0.90;99.80
9519;DHT22;4797;50.220;8.782;2023-12-07T03:12:38;0.80;99.80
9519;DHT22;4797;50.220;8.782;2023-12-07T03:15:07;0.90;99.80
9519;DHT22;4797;50.220;8.782;2023-12-07T03:17:36;0.90;99.80
9519;DHT22;4797;50.220;8.782;2023-12-07T03:20:07;0.90;99.80
9519;DHT22;4797;50.220;8.782;2023-12-07T03:22:36;0.90;99.80
9519;DHT22;4797;50.220;8.782;2023-12-07T03:25:05;0.80;99.80
9519;DHT22;4797;50.220;8.782;2023-12-07T03:27:33;0.80;99.80
9519;DHT22;4797;50.220;8.782;2023-12-07T03:30:01;0.80;99.80
9519;DHT22;4797;50.220;8.782;2023-12-07T03:32:29;0.80;99.80
9519;DHT22;4797;50.220;8.782;2023-12-07T03:34:57;0.80;99.80
9519;DHT22;4797;50.220;8.782;2023-12-07T03:37:27;0.80;99.80
9519;DHT22;4797;50.220;8.782;2023-12-07T03:39:55;0.70;99.80
9519;DHT22;4797;50.220;8.782;2023-12-07T03:42:23;0.70;99.80
9519;DHT22;4797;50.220;8.782;2023-12-07T03:45:11;0.70;99.80
9519;DHT22;4797;50.220;8.782;2023-12-07T03:47:39;0.60;99.80
9519;DHT22;4797;50.220;8.782;2023-12-07T03:50:07;0.60;99.80
9519;DHT22;4797;50.220;8.782;2023-12-07T03:52:37;0.60;99.80
9519;DHT22;4797;50.220;8.782;2023-12-07T03:55:05;0.60;99.80
9519;DHT22;4797;50.220;8.782;2023-12-07T03:57:33;0.50;99.80
9519;DHT22;4797;50.220;8.782;2023-12-07T04:00:01;0.50;99.80
9519;DHT22;4797;50.220;8.782;2023-12-07T04:02:32;0.60;99.80
9519;DHT22;4797;50.220;8.782;2023-12-07T04:05:00;0.50;99.80
9519;DHT22;4797;50.220;8.782;2023-12-07T04:07:28;0.50;99.80
9519;DHT22;4797;50.220;8.782;2023-12-07T04:09:58;0.40;99.80
9519;DHT22;4797;50.220;8.782;2023-12-07T04:12:26;0.40;99.80
9519;DHT22;4797;50.220;8.782;2023-12-07T04:14:54;0.30;99.80
9519;DHT22;4797;50.220;8.782;2023-12-07T04:17:22;0.30;99.80
9519;DHT22;4797;50.220;8.782;2023-12-07T04:19:50;0.30;99.80
9519;DHT22;4797;50.220;8.782;2023-12-07T04:22:18;0.30;99.80
9519;DHT22;4797;50.220;8.782;2023-12-07T04:24:46;0.30;99.80
9519;DHT22;4797;50.220;8.782;2023-12-07T04:27:15;0.40;99.80
9519;DHT22;4797;50.220;8.782;2023-12-07T04:29:43;0.30;99.80
9519;DHT22;4797;50.220;8.782;2023-12-07T04:32:11;0.30;99.80
9519;DHT22;4797;50.220;8.782;2023-12-07T04:34:39;0.30;99.80
9519;DHT22;4797;50.220;8.782;2023-12-07T04:37:07;0.30;99.80
9519;DHT22;4797;50.220;8.782;2023-12-07T04:39:36;0.30;99.80
9519;DHT22;4797;50.220;8.782;2023-12-07T04:42:04;0.30;99.80
9519;DHT22;4797;50.220;8.782;2023-12-07T04:44:33;0.30;99.80
9519;DHT22;4797;50.220;8.782;2023-12-07T04:47:01;0.20;99.80
9519;DHT22;4797;50.220;8.782;2023-12-07T04:49:29;0.20;99.80
9519;DHT22;4797;50.220;8.782;2023-12-07T04:51:57;0.20;99.80
9519;DHT22;4797;50.220;8.782;2023-12-07T04:54:25;0.30;99.80
9519;DHT22;4797;50.220;8.782;2023-12-07T04:56:54;0.30;99.80
9519;DHT22;4797;50.220;8.782;2023-12-07T04:59:22;0.30;99.80
9519;DHT22;4797;50.220;8.782;2023-12-07T05:01:51;0.20;99.80
9519;DHT22;4797;50.220;8.782;2023-12-07T05:04:20;0.20;99.80
9519;DHT22;4797;50.220;8.782;2023-12-07T05:06:48;0.30;99.80
9519;DHT22;4797;50.220;8.782;2023-12-07T05:09:16;0.30;99.80
9519;DHT22;4797;50.220;8.782;2023-12-07T05:11:44;0.30;99.80
9519;DHT22;4797;50.220;8.782;2023-12-07T05:14:12;0.40;99.80
9519;DHT22;4797;50.220;8.782;2023-12-07T05:16:41;0.40;99.80
9519;DHT22;4797;50.220;8.782;2023-12-07T05:19:10;0.50;99.80
9519;DHT22;4797;50.220;8.782;2023-12-07T05:21:38;0.50;99.80
9519;DHT22;4797;50.220;8.782;2023-12-07T05:24:06;0.50;99.80
9519;DHT22;4797;50.220;8.782;2023-12-07T05:26:35;0.60;99.80
9519;DHT22;4797;50.220;8.782;2023-12-07T05:29:03;0.70;99.80
9519;DHT22;4797;50.220;8.782;2023-12-07T05:31:31;0.90;99.80
9519;DHT22;4797;50.220;8.782;2023-12-07T05:33:59;0.90;99.80
9519;DHT22;4797;50.220;8.782;2023-12-07T05:36:29;1.00;99.80
9519;DHT22;4797;50.220;8.782;2023-12-07T05:38:57;1.00;99.80
9519;DHT22;4797;50.220;8.782;2023-12-07T05:41:25;1.00;99.80
9519;DHT22;4797;50.220;8.782;2023-12-07T05:43:53;0.90;99.80
9519;DHT22;4797;50.220;8.782;2023-12-07T05:46:21;0.90;99.80
9519;DHT22;4797;50.220;8.782;2023-12-07T05:48:49;0.80;99.80
9519;DHT22;4797;50.220;8.782;2023-12-07T05:51:20;0.80;99.80
9519;DHT22;4797;50.220;8.782;2023-12-07T05:53:50;0.70;99.80
9519;DHT22;4797;50.220;8.782;2023-12-07T05:56:19;0.70;99.80
9519;DHT22;4797;50.220;8.782;2023-12-07T05:58:48;0.60;99.80
9519;DHT22;4797;50.220;8.782;2023-12-07T06:01:17;0.50;99.80
9519;DHT22;4797;50.220;8.782;2023-12-07T06:03:46;0.40;99.80
9519;DHT22;4797;50.220;8.782;2023-12-07T06:06:14;0.30;99.80
9519;DHT22;4797;50.220;8.782;2023-12-07T06:08:42;0.20;99.80
9519;DHT22;4797;50.220;8.782;2023-12-07T06:11:12;0.20;99.80
9519;DHT22;4797;50.220;8.782;2023-12-07T06:13:40;0.20;99.80
9519;DHT22;4797;50.220;8.782;2023-12-07T06:16:12;0.10;99.80
9519;DHT22;4797;50.220;8.782;2023-12-07T06:18:41;0.10;99.80
9519;DHT22;4797;50.220;8.782;2023-12-07T06:21:09;0.10;99.80
9519;DHT22;4797;50.220;8.782;2023-12-07T06:23:37;0.00;99.80
9519;DHT22;4797;50.220;8.782;2023-12-07T06:26:06;0.00;99.80
9519;DHT22;4797;50.220;8.782;2023-12-07T06:28:35;0.00;99.80
9519;DHT22;4797;50.220;8.782;2023-12-07T06:31:06;0.00;99.80
9519;DHT22;4797;50.220;8.782;2023-12-07T06:33:35;0.00;99.80
9519;DHT22;4797;50.220;8.782;2023-12-07T06:36:04;-0.10;99.80
9519;DHT22;4797;50.220;8.782;2023-12-07T06:38:32;-0.10;99.80
9519;DHT22;4797;50.220;8.782;2023-12-07T06:41:00;-0.10;99.80
9519;DHT22;4797;50.220;8.782;2023-12-07T06:43:28;-0.10;99.80
9519;DHT22;4797;50.220;8.782;2023-12-07T06:45:59;-0.10;99.80
9519;DHT22;4797;50.220;8.782;2023-12-07T06:48:27;-0.10;99.80
9519;DHT22;4797;50.220;8.782;2023-12-07T06:50:55;-0.10;99.80
9519;DHT22;4797;50.220;8.782;2023-12-07T06:53:23;-0.10;99.80
9519;DHT22;4797;50.220;8.782;2023-12-07T06:55:51;-0.10;99.80
9519;DHT22;4797;50.220;8.782;2023-12-07T06:58:19;-0.20;99.80
9519;DHT22;4797;50.220;8.782;2023-12-07T07:00:48;-0.20;99.80
9519;DHT22;4797;50.220;8.782;2023-12-07T07:03:17;-0.20;99.80
9519;DHT22;4797;50.220;8.782;2023-12-07T07:05:45;-0.30;99.80
9519;DHT22;4797;50.220;8.782;2023-12-07T07:08:16;-0.30;99.80
9519;DHT22;4797;50.220;8.782;2023-12-07T07:10:45;-0.30;99.80
9519;DHT22;4797;50.220;8.782;2023-12-07T07:13:14;-0.30;99.80
9519;DHT22;4797;50.220;8.782;2023-12-07T07:15:44;-0.40;99.80
9519;DHT22;4797;50.220;8.782;2023-12-07T07:18:12;-0.40;99.80
9519;DHT22;4797;50.220;8.782;2023-12-07T07:20:41;-0.40;99.80
9519;DHT22;4797;50.220;8.782;2023-12-07T07:23:09;-0.40;99.80
9519;DHT22;4797;50.220;8.782;2023-12-07T07:25:37;-0.40;99.80
9519;DHT22;4797;50.220;8.782;2023-12-07T07:28:06;-0.50;99.80
9519;DHT22;4797;50.220;8.782;2023-12-07T07:30:39;-0.50;99.80
9519;DHT22;4797;50.220;8.782;2023-12-07T07:33:06;-0.50;99.80
9519;DHT22;4797;50.220;8.782;2023-12-07T07:35:34;-0.50;99.80
9519;DHT22;4797;50.220;8.782;2023-12-07T07:38:04;-0.40;99.80
9519;DHT22;4797;50.220;8.782;2023-12-07T07:40:31;-0.40;99.80
9519;DHT22;4797;50.220;8.782;2023-12-07T07:42:59;-0.30;99.80
9519;DHT22;4797;50.220;8.782;2023-12-07T07:45:27;-0.30;99.80
9519;DHT22;4797;50.220;8.782;2023-12-07T07:47:55;-0.30;99.80
9519;DHT22;4797;50.220;8.782;2023-12-07T07:50:23;-0.30;99.80
9519;DHT22;4797;50.220;8.782;2023-12-07T07:52:51;-0.20;99.80
9519;DHT22;4797;50.220;8.782;2023-12-07T07:55:21;-0.10;99.80
9519;DHT22;4797;50.220;8.782;2023-12-07T07:57:49;-0.10;99.80
9519;DHT22;4797;50.220;8.782;2023-12-07T08:00:17;0.00;99.80
9519;DHT22;4797;50.220;8.782;2023-12-07T08:02:46;0.00;99.80
9519;DHT22;4797;50.220;8.782;2023-12-07T08:05:14;0.00;99.80
9519;DHT22;4797;50.220;8.782;2023-12-07T08:07:42;0.00;99.80
9519;DHT22;4797;50.220;8.782;2023-12-07T08:10:10;0.00;99.80
9519;DHT22;4797;50.220;8.782;2023-12-07T08:12:41;0.10;99.80
9519;DHT22;4797;50.220;8.782;2023-12-07T08:15:12;0.10;99.80
9519;DHT22;4797;50.220;8.782;2023-12-07T08:17:40;0.10;99.80
9519;DHT22;4797;50.220;8.782;2023-12-07T08:20:09;0.20;99.80
9519;DHT22;4797;50.220;8.782;2023-12-07T08:22:38;0.30;99.80
9519;DHT22;4797;50.220;8.782;2023-12-07T08:25:08;0.30;99.80
9519;DHT22;4797;50.220;8.782;2023-12-07T08:27:38;0.50;99.80
9519;DHT22;4797;50.220;8.782;2023-12-07T08:30:08;0.50;99.80
9519;DHT22;4797;50.220;8.782;2023-12-07T08:32:37;0.60;99.80
9519;DHT22;4797;50.220;8.782;2023-12-07T08:35:06;0.60;99.80
9519;DHT22;4797;50.220;8.782;2023-12-07T08:37:37;0.60;99.80
9519;DHT22;4797;50.220;8.782;2023-12-07T08:40:06;0.50;99.80
9519;DHT22;4797;50.220;8.782;2023-12-07T08:42:34;0.60;99.80
9519;DHT22;4797;50.220;8.782;2023-12-07T08:45:02;0.70;99.80
9519;DHT22;4797;50.220;8.782;2023-12-07T08:47:34;0.80;99.80
9519;DHT22;4797;50.220;8.782;2023-12-07T08:50:04;1.00;99.80
9519;DHT22;4797;50.220;8.782;2023-12-07T08:52:34;1.10;99.80
9519;DHT22;4797;50.220;8.782;2023-12-07T08:55:13;1.20;99.80
9519;DHT22;4797;50.220;8.782;2023-12-07T08:57:43;1.30;99.80
9519;DHT22;4797;50.220;8.782;2023-12-07T09:00:12;1.50;99.80
9519;DHT22;4797;50.220;8.782;2023-12-07T09:02:41;1.70;99.80
9519;DHT22;4797;50.220;8.782;2023-12-07T09:05:14;1.80;99.80
9519;DHT22;4797;50.220;8.782;2023-12-07T09:07:42;2.00;99.80
9519;DHT22;4797;50.220;8.782;2023-12-07T09:10:10;2.10;99.80
9519;DHT22;4797;50.220;8.782;2023-12-07T09:12:38;2.20;99.80
9519;DHT22;4797;50.220;8.782;2023-12-07T09:15:07;2.30;99.80
9519;DHT22;4797;50.220;8.782;2023-12-07T09:17:37;2.50;99.80
9519;DHT22;4797;50.220;8.782;2023-12-07T09:20:07;2.60;99.80
9519;DHT22;4797;50.220;8.782;2023-12-07T09:22:40;2.60;99.80
9519;DHT22;4797;50.220;8.782;2023-12-07T09:25:08;2.50;99.80
9519;DHT22;4797;50.220;8.782;2023-12-07T09:27:37;2.50;99.80
9519;DHT22;4797;50.220;8.782;2023-12-07T09:30:08;2.50;99.80
9519;DHT22;4797;50.220;8.782;2023-12-07T09:32:39;2.50;99.80
9519;DHT22;4797;50.220;8.782;2023-12-07T09:35:09;2.50;99.80
9519;DHT22;4797;50.220;8.782;2023-12-07T09:37:42;2.50;99.80
9519;DHT22;4797;50.220;8.782;2023-12-07T09:40:14;2.50;99.80
9519;DHT22;4797;50.220;8.782;2023-12-07T09:42:44;2.60;99.80
9519;DHT22;4797;50.220;8.782;2023-12-07T09:45:12;2.80;99.80
9519;DHT22;4797;50.220;8.782;2023-12-07T09:47:42;2.90;99.80
9519;DHT22;4797;50.220;8.782;2023-12-07T09:50:12;3.10;99.80
9519;DHT22;4797;50.220;8.782;2023-12-07T09:52:42;3.10;99.80
9519;DHT22;4797;50.220;8.782;2023-12-07T09:55:22;3.20;99.80
9519;DHT22;4797;50.220;8.782;2023-12-07T09:57:51;3.20;99.80
9519;DHT22;4797;50.220;8.782;2023-12-07T10:00:21;3.30;99.80
9519;DHT22;4797;50.220;8.782;2023-12-07T10:02:49;3.40;99.80
9519;DHT22;4797;50.220;8.782;2023-12-07T10:05:22;3.50;99.80
9519;DHT22;4797;50.220;8.782;2023-12-07T10:07:51;3.50;99.80
9519;DHT22;4797;50.220;8.782;2023-12-07T10:10:19;3.40;99.80
9519;DHT22;4797;50.220;8.782;2023-12-07T10:12:48;3.40;99.80
9519;DHT22;4797;50.220;8.782;2023-12-07T10:15:19;3.40;99.80
9519;DHT22;4797;50.220;8.782;2023-12-07T10:17:49;3.40;99.80
9519;DHT22;4797;50.220;8.782;2023-12-07T10:20:18;3.40;99.80
9519;DHT22;4797;50.220;8.782;2023-12-07T10:23:03;3.40;99.80
9519;DHT22;4797;50.220;8.782;2023-12-07T10:25:31;3.50;99.80
9519;DHT22;4797;50.220;8.782;2023-12-07T10:28:00;3.50;99.80
9519;DHT22;4797;50.220;8.782;2023-12-07T10:30:33;3.50;99.80
9519;DHT22;4797;50.220;8.782;2023-12-07T10:33:03;3.40;99.80
9519;DHT22;4797;50.220;8.782;2023-12-07T10:35:31;3.40;99.80
9519;DHT22;4797;50.220;8.782;2023-12-07T10:38:00;3.40;99.80
9519;DHT22;4797;50.220;8.782;2023-12-07T10:40:28;3.40;99.80
9519;DHT22;4797;50.220;8.782;2023-12-07T10:42:58;3.40;99.80
9519;DHT22;4797;50.220;8.782;2023-12-07T10:45:29;3.30;99.80
9519;DHT22;4797;50.220;8.782;2023-12-07T10:48:02;3.30;99.80
9519;DHT22;4797;50.220;8.782;2023-12-07T10:50:34;3.40;99.80
9519;DHT22;4797;50.220;8.782;2023-12-07T10:53:07;3.30;99.80
9519;DHT22;4797;50.220;8.782;2023-12-07T10:55:41;3.30;99.80
9519;DHT22;4797;50.220;8.782;2023-12-07T10:58:11;3.30;99.80
9519;DHT22;4797;50.220;8.782;2023-12-07T11:00:42;3.30;99.80
9519;DHT22;4797;50.220;8.782;2023-12-07T11:03:15;3.30;99.80
9519;DHT22;4797;50.220;8.782;2023-12-07T11:05:46;3.20;99.80
9519;DHT22;4797;50.220;8.782;2023-12-07T11:08:21;3.10;99.80
9519;DHT22;4797;50.220;8.782;2023-12-07T11:10:58;3.10;99.80
9519;DHT22;4797;50.220;8.782;2023-12-07T11:13:29;3.10;99.80
9519;DHT22;4797;50.220;8.782;2023-12-07T11:15:58;3.20;99.80
9519;DHT22;4797;50.220;8.782;2023-12-07T11:18:26;3.20;99.80
9519;DHT22;4797;50.220;8.782;2023-12-07T11:20:55;3.20;99.80
9519;DHT22;4797;50.220;8.782;2023-12-07T11:23:27;3.10;99.80
9519;DHT22;4797;50.220;8.782;2023-12-07T11:25:55;3.00;99.80
9519;DHT22;4797;50.220;8.782;2023-12-07T11:28:36;3.00;99.80
9519;DHT22;4797;50.220;8.782;2023-12-07T11:31:06;3.00;99.80
9519;DHT22;4797;50.220;8.782;2023-12-07T11:33:37;3.00;99.80
9519;DHT22;4797;50.220;8.782;2023-12-07T11:36:07;3.00;99.80
9519;DHT22;4797;50.220;8.782;2023-12-07T11:38:37;3.10;99.80
9519;DHT22;4797;50.220;8.782;2023-12-07T11:41:06;3.10;99.80
9519;DHT22;4797;50.220;8.782;2023-12-07T11:43:41;3.10;99.80
9519;DHT22;4797;50.220;8.782;2023-12-07T11:46:12;3.10;99.80
9519;DHT22;4797;50.220;8.782;2023-12-07T11:48:48;3.10;99.80
9519;DHT22;4797;50.220;8.782;2023-12-07T11:51:17;3.10;99.80
9519;DHT22;4797;50.220;8.782;2023-12-07T11:53:47;3.10;99.80
9519;DHT22;4797;50.220;8.782;2023-12-07T11:56:17;3.20;99.80
9519;DHT22;4797;50.220;8.782;2023-12-07T11:58:48;3.30;99.80
9519;DHT22;4797;50.220;8.782;2023-12-07T12:01:17;3.20;99.80
9519;DHT22;4797;50.220;8.782;2023-12-07T12:03:45;3.20;99.80
9519;DHT22;4797;50.220;8.782;2023-12-07T12:06:13;3.30;99.80
9519;DHT22;4797;50.220;8.782;2023-12-07T12:08:41;3.30;99.80
9519;DHT22;4797;50.220;8.782;2023-12-07T12:11:11;3.40;99.80
9519;DHT22;4797;50.220;8.782;2023-12-07T12:13:39;3.40;99.80
9519;DHT22;4797;50.220;8.782;2023-12-07T12:16:07;3.40;99.80
9519;DHT22;4797;50.220;8.782;2023-12-07T12:18:36;3.40;99.80
9519;DHT22;4797;50.220;8.782;2023-12-07T12:21:07;3.40;99.80
9519;DHT22;4797;50.220;8.782;2023-12-07T12:23:36;3.40;99.80
9519;DHT22;4797;50.220;8.782;2023-12-07T12:26:05;3.30;99.80
9519;DHT22;4797;50.220;8.782;2023-12-07T12:28:35;3.30;99.80
9519;DHT22;4797;50.220;8.782;2023-12-07T12:31:09;3.30;99.80
9519;DHT22;4797;50.220;8.782;2023-12-07T12:33:38;3.20;99.80
9519;DHT22;4797;50.220;8.782;2023-12-07T12:36:07;3.30;99.80
9519;DHT22;4797;50.220;8.782;2023-12-07T12:38:37;3.30;99.80
9519;DHT22;4797;50.220;8.782;2023-12-07T12:41:10;3.30;99.80
9519;DHT22;4797;50.220;8.782;2023-12-07T12:43:40;3.40;99.80
9519;DHT22;4797;50.220;8.782;2023-12-07T12:46:09;3.30;99.80
9519;DHT22;4797;50.220;8.782;2023-12-07T12:48:52;3.20;99.80
9519;DHT22;4797;50.220;8.782;2023-12-07T12:51:22;3.20;99.80
9519;DHT22;4797;50.220;8.782;2023-12-07T12:53:51;3.20;99.80
9519;DHT22;4797;50.220;8.782;2023-12-07T12:56:21;3.30;99.80
9519;DHT22;4797;50.220;8.782;2023-12-07T12:58:52;3.30;99.80
9519;DHT22;4797;50.220;8.782;2023-12-07T13:01:28;3.20;99.80
9519;DHT22;4797;50.220;8.782;2023-12-07T13:03:56;3.20;99.80
9519;DHT22;4797;50.220;8.782;2023-12-07T13:06:27;3.20;99.80
9519;DHT22;4797;50.220;8.782;2023-12-07T13:08:55;3.30;99.80
9519;DHT22;4797;50.220;8.782;2023-12-07T13:11:27;3.30;99.80
9519;DHT22;4797;50.220;8.782;2023-12-07T13:13:56;3.30;99.80
9519;DHT22;4797;50.220;8.782;2023-12-07T13:16:25;3.20;99.80
9519;DHT22;4797;50.220;8.782;2023-12-07T13:18:53;3.20;99.80
9519;DHT22;4797;50.220;8.782;2023-12-07T13:21:22;3.20;99.80
9519;DHT22;4797;50.220;8.782;2023-12-07T13:23:50;3.20;99.80
9519;DHT22;4797;50.220;8.782;2023-12-07T13:26:22;3.20;99.80
9519;DHT22;4797;50.220;8.782;2023-12-07T13:28:50;3.10;99.80
9519;DHT22;4797;50.220;8.782;2023-12-07T13:31:20;3.10;99.80
9519;DHT22;4797;50.220;8.782;2023-12-07T13:33:50;3.10;99.80
9519;DHT22;4797;50.220;8.782;2023-12-07T13:36:23;3.10;99.80
9519;DHT22;4797;50.220;8.782;2023-12-07T13:38:53;3.10;99.80
9519;DHT22;4797;50.220;8.782;2023-12-07T13:41:21;3.10;99.80
9519;DHT22;4797;50.220;8.782;2023-12-07T13:43:52;3.00;99.80
9519;DHT22;4797;50.220;8.782;2023-12-07T13:46:21;2.90;99.80
9519;DHT22;4797;50.220;8.782;2023-12-07T13:48:50;2.90;99.80
9519;DHT22;4797;50.220;8.782;2023-12-07T13:51:18;2.90;99.80
9519;DHT22;4797;50.220;8.782;2023-12-07T13:53:47;2.90;99.80
9519;DHT22;4797;50.220;8.782;2023-12-07T13:56:15;2.90;99.80
9519;DHT22;4797;50.220;8.782;2023-12-07T13:58:43;2.90;99.80
9519;DHT22;4797;50.220;8.782;2023-12-07T14:01:11;2.90;99.80
9519;DHT22;4797;50.220;8.782;2023-12-07T14:03:40;2.90;99.80
9519;DHT22;4797;50.220;8.782;2023-12-07T14:06:08;2.90;99.80
9519;DHT22;4797;50.220;8.782;2023-12-07T14:08:47;3.00;99.80
9519;DHT22;4797;50.220;8.782;2023-12-07T14:11:17;3.00;99.80
9519;DHT22;4797;50.220;8.782;2023-12-07T14:13:45;3.00;99.80
9519;DHT22;4797;50.220;8.782;2023-12-07T14:16:15;3.10;99.80
9519;DHT22;4797;50.220;8.782;2023-12-07T14:18:58;3.10;99.80
9519;DHT22;4797;50.220;8.782;2023-12-07T14:21:41;3.10;99.80
9519;DHT22;4797;50.220;8.782;2023-12-07T14:24:21;3.10;99.80
9519;DHT22;4797;50.220;8.782;2023-12-07T14:26:49;3.00;99.80
9519;DHT22;4797;50.220;8.782;2023-12-07T14:29:17;3.00;99.80
9519;DHT22;4797;50.220;8.782;2023-12-07T14:31:53;3.00;99.80
9519;DHT22;4797;50.220;8.782;2023-12-07T14:34:23;3.10;99.80
9519;DHT22;4797;50.220;8.782;2023-12-07T14:37:01;3.10;99.80
9519;DHT22;4797;50.220;8.782;2023-12-07T14:39:29;3.10;99.80
9519;DHT22;4797;50.220;8.782;2023-12-07T14:41:57;3.00;99.80
9519;DHT22;4797;50.220;8.782;2023-12-07T14:44:25;3.00;99.80
9519;DHT22;4797;50.220;8.782;2023-12-07T14:46:56;3.00;99.80
9519;DHT22;4797;50.220;8.782;2023-12-07T14:49:25;3.00;99.80
9519;DHT22;4797;50.220;8.782;2023-12-07T14:51:55;3.00;99.80
9519;DHT22;4797;50.220;8.782;2023-12-07T14:54:26;3.00;99.80
9519;DHT22;4797;50.220;8.782;2023-12-07T14:56:56;3.00;99.80
9519;DHT22;4797;50.220;8.782;2023-12-07T14:59:25;2.90;99.80
9519;DHT22;4797;50.220;8.782;2023-12-07T15:01:53;2.90;99.80
9519;DHT22;4797;50.220;8.782;2023-12-07T15:04:21;2.90;99.80
9519;DHT22;4797;50.220;8.782;2023-12-07T15:07:01;2.90;99.80
9519;DHT22;4797;50.220;8.782;2023-12-07T15:09:30;2.80;99.80
9519;DHT22;4797;50.220;8.782;2023-12-07T15:11:58;2.80;99.80
9519;DHT22;4797;50.220;8.782;2023-12-07T15:14:26;2.80;99.80
9519;DHT22;4797;50.220;8.782;2023-12-07T15:17:04;2.70;99.80
9519;DHT22;4797;50.220;8.782;2023-12-07T15:19:34;2.80;99.80
9519;DHT22;4797;50.220;8.782;2023-12-07T15:22:08;2.80;99.80
9519;DHT22;4797;50.220;8.782;2023-12-07T15:24:37;2.70;99.80
9519;DHT22;4797;50.220;8.782;2023-12-07T15:27:07;2.60;99.80
9519;DHT22;4797;50.220;8.782;2023-12-07T15:29:35;2.60;99.80
9519;DHT22;4797;50.220;8.782;2023-12-07T15:32:05;2.60;99.80
9519;DHT22;4797;50.220;8.782;2023-12-07T15:34:33;2.60;99.80
9519;DHT22;4797;50.220;8.782;2023-12-07T15:37:08;2.60;99.80
9519;DHT22;4797;50.220;8.782;2023-12-07T15:39:40;2.50;99.80
9519;DHT22;4797;50.220;8.782;2023-12-07T15:42:09;2.40;99.80
9519;DHT22;4797;50.220;8.782;2023-12-07T15:44:37;2.40;99.80
9519;DHT22;4797;50.220;8.782;2023-12-07T15:47:06;2.30;99.80
9519;DHT22;4797;50.220;8.782;2023-12-07T15:49:34;2.30;99.80
9519;DHT22;4797;50.220;8.782;2023-12-07T15:52:03;2.30;99.80
9519;DHT22;4797;50.220;8.782;2023-12-07T15:54:33;2.20;99.80
9519;DHT22;4797;50.220;8.782;2023-12-07T15:57:07;2.20;99.80
9519;DHT22;4797;50.220;8.782;2023-12-07T15:59:37;2.20;99.80
9519;DHT22;4797;50.220;8.782;2023-12-07T16:02:06;2.20;99.80
9519;DHT22;4797;50.220;8.782;2023-12-07T16:04:37;2.30;99.80
9519;DHT22;4797;50.220;8.782;2023-12-07T16:07:06;2.20;99.80
9519;DHT22;4797;50.220;8.782;2023-12-07T16:09:38;2.20;99.80
9519;DHT22;4797;50.220;8.782;2023-12-07T16:12:09;2.20;99.80
9519;DHT22;4797;50.220;8.782;2023-12-07T16:14:38;2.20;99.80
9519;DHT22;4797;50.220;8.782;2023-12-07T16:17:07;2.20;99.80
9519;DHT22;4797;50.220;8.782;2023-12-07T16:19:35;2.20;99.80
9519;DHT22;4797;50.220;8.782;2023-12-07T16:22:04;2.30;99.80
9519;DHT22;4797;50.220;8.782;2023-12-07T16:24:33;2.20;99.80
9519;DHT22;4797;50.220;8.782;2023-12-07T16:27:03;2.20;99.80
9519;DHT22;4797;50.220;8.782;2023-12-07T16:29:34;2.20;99.80
9519;DHT22;4797;50.220;8.782;2023-12-07T16:32:03;2.20;99.80